LTBD

Çıldır Airport

Aydın, Turkey
TAF LTBD 231340Z 2315/2324 VRB02KT CAVOK TEMPO 2315/2317 27012KT
Issued Valid From Valid To
Apr-23 @ 13:40 UTC
(9 hours ago)
Apr-23 @ 15:00 UTC
(8 hours ago)
Apr-24 @ 00:00 UTC
(in an hour)
Apr-23 @ 15:00 to Apr-24 @ 00:00
TAF LTBD 231340Z 2315/2324 VRB02KT CAVOK
Wind Visibility Clouds Conditions
Variable at 2 knots 10,000+ meters
  • No significant clouds
Expired Click to View Apr-23 @ 15:00 to Apr-23 @ 17:00
TEMPO 2315/2317 27012KT
Wind
270° at 12 knots
TAF LTBD 231340Z 2315/2324 VRB02KT CAVOK TEMPO 2315/2317 27012KT
Issued Apr-23 @ 13:40 UTC
(9 hours ago)
Valid From Apr-23 @ 15:00 UTC
(8 hours ago)
Valid To Apr-24 @ 00:00 UTC
(in an hour)
Apr-23 @ 15:00 - Apr-24 @ 00:00
Wind Visibility
Variable at 2 knots 10,000+ meters
Clouds
  • No significant clouds
Conditions
Apr-23 @ 15:00 - Apr-23 @ 17:00
Wind
270° at 12 knots